• Join FlightAware (Why Join?)
  • Login
  • US Flag 
05:18PM EDT


 

Airport Tracker/Info


-or-


 

Live Flight TrackerFlight Track Log ✈ N421VA ✈ 13-Jun-2013 ✈ KPMH - KHXD

Flight Track Log - Related Links

Times and Time Zones

All times are in EDT time to prevent confusion due to time zone crossing. See the N421VA flight status page for this flight to view local times or setup timezone preferences in your user account.

Time Position Orientation Groundspeed Altitude Reporting Facility
EDT Latitude Longitude Course Direction KTS MPH feet Rate Location/Type
06:36PM 38.8022 -82.7892 170° South 156 180 3,100  Level Indianapolis Center
06:37PM 38.7592 -82.7792 170° South 156 180 3,700 600 Climbing Indianapolis Center
06:38PM 38.7061 -82.7692 172° South 160 184 4,400 660 Climbing Indianapolis Center
06:39PM 38.6597 -82.7619 173° South 165 190 5,100 660 Climbing Indianapolis Center
06:40PM 38.6114 -82.7458 165° South 171 197 5,800 660 Climbing Indianapolis Center
06:41PM 38.5650 -82.7306 166° South 173 199 6,500 720 Climbing Indianapolis Center
06:42PM 38.5203 -82.7111 161° South 170 196 7,400 780 Climbing Indianapolis Center
06:43PM 38.4781 -82.6922 161° South 161 185 8,200 720 Climbing Indianapolis Center
06:44PM 38.4361 -82.6722 160° South 161 185 8,900 720 Climbing Indianapolis Center
06:45PM 38.3844 -82.6525 163° South 165 190 9,700 660 Climbing Indianapolis Center
06:46PM 38.3383 -82.6356 164° South 172 198 10,300 660 Climbing Indianapolis Center
06:47PM 38.2931 -82.6178 163° South 171 197 11,100 660 Climbing Indianapolis Center
06:48PM 38.2475 -82.6031 166° South 168 193 11,700 660 Climbing Indianapolis Center
06:49PM 38.2025 -82.5889 166° South 167 192 12,500 660 Climbing Indianapolis Center
06:50PM 38.1558 -82.5764 168° South 170 196 13,100 660 Climbing Indianapolis Center
06:51PM 38.1022 -82.5597 166° South 169 194 13,900 600 Climbing Indianapolis Center
06:52PM 38.0556 -82.5444 166° South 172 198 14,400 540 Climbing Indianapolis Center
06:53PM 38.0083 -82.5314 168° South 175 201 15,100 660 Climbing Indianapolis Center
06:54PM 37.9619 -82.5158 165° South 173 199 15,800 540 Climbing Indianapolis Center
06:55PM 37.9128 -82.4992 165° South 180 207 16,300 480 Climbing Indianapolis Center
06:56PM 37.8642 -82.4833 166° South 180 207 16,800 480 Climbing Indianapolis Center
06:57PM 37.8061 -82.4614 163° South 185 213 17,400 540 Climbing Indianapolis Center
06:58PM 37.7561 -82.4442 165° South 185 213 18,000 540 Climbing Indianapolis Center
06:59PM 37.7067 -82.4272 165° South 183 211 18,600 540 Climbing Indianapolis Center
07:00PM 37.6578 -82.4108 165° South 182 209 19,200 540 Climbing Indianapolis Center
07:01PM 37.6103 -82.3944 165° South 178 205 19,800 480 Climbing Indianapolis Center
07:02PM 37.5628 -82.3775 164° South 178 205 20,200 360 Climbing Indianapolis Center
07:03PM 37.5094 -82.3614 167° South 192 221 20,600 360 Climbing Indianapolis Center
07:04PM 37.4469 -82.3428 167° South 196 226 21,000 180 Climbing Indianapolis Center
07:05PM 37.3875 -82.3306 171° South 212 244 21,000  Level Indianapolis Center
07:06PM 37.3231 -82.3206 173° South 230 265 21,000  Level Indianapolis Center
07:08PM 37.2589 -82.3000 166° South 236 272 21,000  Level Indianapolis Center
07:09PM 37.1964 -82.2761 163° South 234 269 21,000  Level Indianapolis Center
07:10PM 37.1317 -82.2536 165° South 239 275 21,000  Level Indianapolis Center
07:11PM 37.0678 -82.2322 165° South 237 273 21,000  Level Indianapolis Center
07:12PM 36.9931 -82.2022 162° South 240 276 21,000  Level Indianapolis Center
07:13PM 36.9300 -82.1733 160° South 241 277 21,000  Level Indianapolis Center
07:14PM 36.8664 -82.1489 163° South 239 275 21,000  Level Indianapolis Center
07:15PM 36.8017 -82.1239 163° South 241 277 21,000  Level Indianapolis Center
07:15PM 36.7753 -82.1183 170° South 244 281 21,000  Level Atlanta Center
07:16PM 36.7122 -82.0939 163° South 244 281 21,000  Level Atlanta Center
07:17PM 36.6494 -82.0697 163° South 244 281 21,000  Level Atlanta Center
07:18PM 36.5844 -82.0481 165° South 244 281 21,000  Level Atlanta Center
07:19PM 36.5214 -82.0264 165° South 244 281 21,000 -60 Level Atlanta Center
07:20PM 36.4583 -81.9994 161° South 244 281 20,900  Descending Atlanta Center
07:21PM 36.3975 -81.9728 161° South 244 281 21,000  Climbing Atlanta Center
07:22PM 36.3344 -81.9461 161° South 239 275 21,000  Level Atlanta Center
07:23PM 36.2775 -81.9064 151° Southeast 239 275 21,000  Level Atlanta Center
07:24PM 36.2328 -81.8508 135° Southeast 239 275 21,000  Level Atlanta Center
07:25PM 36.1839 -81.8008 140° Southeast 245 282 21,000 60 Level Atlanta Center
07:26PM 36.1306 -81.7431 139° Southeast 245 282 21,200 60 Climbing Atlanta Center
07:27PM 36.0814 -81.6750 132° Southeast 234 269 21,200 -120 Level Atlanta Center
07:28PM 36.0425 -81.6042 124° Southeast 241 277 21,000 -120 Descending Atlanta Center
07:29PM 36.0036 -81.5361 125° Southeast 241 277 21,000  Level Atlanta Center
07:30PM 35.9644 -81.4656 124° Southeast 241 277 21,000  Level Atlanta Center
07:31PM 35.9275 -81.3950 123° Southeast 246 283 21,000  Level Atlanta Center
07:32PM 35.8844 -81.3297 129° Southeast 246 283 21,000  Level Atlanta Center
07:33PM 35.8311 -81.2750 140° Southeast 246 283 21,000  Level Atlanta Center
07:34PM 35.7819 -81.2256 141° Southeast 246 283 21,100  Climbing Atlanta Center
07:35PM 35.7267 -81.1736 143° Southeast 251 289 21,000 -60 Descending Atlanta Center
07:36PM 35.6711 -81.1194 142° Southeast 258 297 21,000  Level Atlanta Center
07:37PM 35.6069 -81.0631 144° Southeast 258 297 21,000  Level Atlanta Center
07:38PM 35.5517 -81.0139 144° Southeast 253 291 21,000  Level Atlanta Center
07:39PM 35.4961 -80.9650 144° Southeast 253 291 21,000  Level Atlanta Center
07:40PM 35.4406 -80.9136 143° Southeast 253 291 21,000  Level Atlanta Center
07:41PM 35.3872 -80.8619 142° Southeast 253 291 21,100  Climbing Atlanta Center
07:42PM 35.3436 -80.7950 129° Southeast 253 291 21,100  Level Atlanta Center
07:43PM 35.3106 -80.7225 119° Southeast 248 285 21,100  Level Atlanta Center
07:44PM 35.2731 -80.6478 122° Southeast 248 285 21,100  Level Atlanta Center
07:45PM 35.2378 -80.5856 125° Southeast 248 285 21,100 -60 Level Atlanta Center
07:46PM 35.1961 -80.5136 125° Southeast 256 295 21,000  Descending Atlanta Center
07:47PM 35.1547 -80.4492 128° Southeast 256 295 21,100  Climbing Atlanta Center
07:48PM 35.1131 -80.3850 128° Southeast 247 284 21,000 -60 Descending Atlanta Center
07:49PM 35.0633 -80.3239 135° Southeast 247 284 21,000  Level Atlanta Center
07:50PM 35.0097 -80.2806 146° Southeast 240 276 21,000  Level Atlanta Center
07:52PM 34.8642 -80.2436 168° South 254 292 21,000 -60 Level Jacksonville Center
07:53PM 34.8039 -80.2531 187° South 216 249 20,900  Descending Jacksonville Center
07:54PM 34.7519 -80.2647 190° South 216 249 21,100  Climbing Jacksonville Center
07:55PM 34.6958 -80.2714 186° South 216 249 21,000  Descending Jacksonville Center
07:56PM 34.6397 -80.2808 188° South 211 243 21,100  Climbing Jacksonville Center
07:57PM 34.5856 -80.2875 186° South 206 237 21,000 -60 Descending Jacksonville Center
07:58PM 34.5358 -80.2964 188° South 185 213 21,000  Level Jacksonville Center
08:00PM 34.4772 -80.2952 190° South  Level FlightAware Approximate
08:03PM 34.2903 -80.3289 190° South 186 214 21,000  Level Jacksonville Center
08:04PM 34.2383 -80.3356 186° South 186 214 21,000  Level Jacksonville Center
08:05PM 34.1819 -80.3447 188° South 186 214 21,000  Level Jacksonville Center
08:06PM 34.1344 -80.3561 191° South 186 214 21,000  Level Jacksonville Center
08:07PM 34.0815 -80.3791 190° South  Level FlightAware Approximate
08:07PM 34.0742 -80.3706 191° South 196 226 21,000  Level Jacksonville Center
08:08PM 34.0251 -80.3912 190° South  Level FlightAware Approximate
08:08PM 34.0306 -80.3817 192° South 201 231 21,000  Level Jacksonville Center
08:09PM 33.9686 -80.4033 190° South  Level FlightAware Approximate
08:09PM 33.9744 -80.3958 192° South 196 226 21,000  Level Jacksonville Center
08:10PM 33.9225 -80.4097 193° South 196 226 21,000  Level Jacksonville Center
08:11PM 33.8706 -80.4214 191° South 196 226 21,000  Level Jacksonville Center
08:12PM 33.8208 -80.4353 193° South 196 226 21,000  Level Jacksonville Center
08:13PM 33.7667 -80.4342 179° South 196 226 21,000  Level Jacksonville Center
08:14PM 33.7144 -80.4406 186° South 196 226 21,000  Level Jacksonville Center
08:15PM 33.6625 -80.4547 193° South 196 226 21,000  Level Jacksonville Center
08:16PM 33.6128 -80.4633 188° South 196 226 21,000  Level Jacksonville Center
08:17PM 33.5608 -80.4750 191° South 196 226 21,000  Level Jacksonville Center
08:18PM 33.5108 -80.4836 188° South 196 226 21,000  Level Jacksonville Center
08:19PM 33.4589 -80.4950 190° South 196 226 21,000  Level Jacksonville Center
08:20PM 33.4047 -80.5039 188° South 196 226 21,000  Level Jacksonville Center
08:21PM 33.3528 -80.5103 186° South 201 231 21,000  Level Jacksonville Center
08:22PM 33.2986 -80.5217 190° South 201 231 21,000  Level Jacksonville Center
08:23PM 33.2467 -80.5306 188° South 201 231 21,000  Level Jacksonville Center
08:24PM 33.1925 -80.5369 186° South 201 231 21,000 -660 Level Jacksonville Center
08:25PM 33.1322 -80.5511 191° South 207 238 19,700 -1,140 Descending Jacksonville Center
08:27PM 33.0746 -80.5503 179° South  Level FlightAware Approximate
08:27PM 33.0011 -80.5742 179° South 232 267 17,600  Level Jacksonville Center
08:28PM 32.9325 -80.5833 186° South 245 282 15,900 -1,620 Descending Jacksonville Center
08:29PM 32.8639 -80.5925 186° South 250 288 14,400 -1,800 Descending Jacksonville Center
08:30PM 32.7931 -80.6067 190° South 255 293 12,400 -1,920 Descending Jacksonville Center
08:32PM 32.7357 -80.6134 186° South  Level FlightAware Approximate
08:32PM 32.6556 -80.6275 186° South 249 287 8,800  Level Jacksonville Center
08:33PM 32.5953 -80.6389 189° South 249 287 7,000 -1,740 Descending Jacksonville Center
08:34PM 32.5244 -80.6506 188° South 242 278 5,400 -1,560 Descending Jacksonville Center
08:35PM 32.4622 -80.6619 189° South 235 270 3,900 -1,800 Descending Jacksonville Center
08:36PM 32.3994 -80.6608 179° South 230 265 1,800 -2,100 Descending Jacksonville Center